sensor_id;sensor_type;location;lat;lon;timestamp;pressure;altitude;pressure_sealevel;temperature
70969;BMP280;58630;43.022;25.100;2023-10-09T00:01:04;;;;23.10
70969;BMP280;58630;43.022;25.100;2023-10-09T00:03:35;;;;23.10
70969;BMP280;58630;43.022;25.100;2023-10-09T00:06:02;;;;23.00
70969;BMP280;58630;43.022;25.100;2023-10-09T00:08:29;;;;23.00
70969;BMP280;58630;43.022;25.100;2023-10-09T00:10:58;;;;23.00
70969;BMP280;58630;43.022;25.100;2023-10-09T00:13:38;;;;23.00
70969;BMP280;58630;43.022;25.100;2023-10-09T00:16:14;;;;23.00
70969;BMP280;58630;43.022;25.100;2023-10-09T00:18:41;;;;23.00
70969;BMP280;58630;43.022;25.100;2023-10-09T00:21:15;;;;22.90
70969;BMP280;58630;43.022;25.100;2023-10-09T00:23:41;;;;22.90
70969;BMP280;58630;43.022;25.100;2023-10-09T00:26:09;;;;22.90
70969;BMP280;58630;43.022;25.100;2023-10-09T00:29:01;;;;22.90
70969;BMP280;58630;43.022;25.100;2023-10-09T00:31:30;;;;22.90
70969;BMP280;58630;43.022;25.100;2023-10-09T00:33:58;;;;22.80
70969;BMP280;58630;43.022;25.100;2023-10-09T00:36:44;;;;22.80
70969;BMP280;58630;43.022;25.100;2023-10-09T00:39:15;;;;22.80
70969;BMP280;58630;43.022;25.100;2023-10-09T00:41:48;;;;22.80
70969;BMP280;58630;43.022;25.100;2023-10-09T00:44:13;;;;22.80
70969;BMP280;58630;43.022;25.100;2023-10-09T00:46:39;;;;22.80
70969;BMP280;58630;43.022;25.100;2023-10-09T00:49:08;;;;22.70
70969;BMP280;58630;43.022;25.100;2023-10-09T00:51:36;;;;22.70
70969;BMP280;58630;43.022;25.100;2023-10-09T00:54:04;;;;22.70
70969;BMP280;58630;43.022;25.100;2023-10-09T00:56:38;;;;22.70
70969;BMP280;58630;43.022;25.100;2023-10-09T00:59:08;;;;22.70
70969;BMP280;58630;43.022;25.100;2023-10-09T01:01:40;;;;22.60
70969;BMP280;58630;43.022;25.100;2023-10-09T01:04:10;;;;22.60
70969;BMP280;58630;43.022;25.100;2023-10-09T01:06:38;;;;22.60
70969;BMP280;58630;43.022;25.100;2023-10-09T01:09:13;;;;22.60
70969;BMP280;58630;43.022;25.100;2023-10-09T01:11:40;;;;22.60
70969;BMP280;58630;43.022;25.100;2023-10-09T01:14:29;;;;22.50
70969;BMP280;58630;43.022;25.100;2023-10-09T01:16:56;;;;22.50
70969;BMP280;58630;43.022;25.100;2023-10-09T01:19:22;;;;22.50
70969;BMP280;58630;43.022;25.100;2023-10-09T01:21:53;;;;22.50
70969;BMP280;58630;43.022;25.100;2023-10-09T01:24:19;;;;22.50
70969;BMP280;58630;43.022;25.100;2023-10-09T01:26:52;;;;22.50
70969;BMP280;58630;43.022;25.100;2023-10-09T01:29:20;;;;22.50
70969;BMP280;58630;43.022;25.100;2023-10-09T01:31:46;;;;22.40
70969;BMP280;58630;43.022;25.100;2023-10-09T01:36:50;;;;22.40
70969;BMP280;58630;43.022;25.100;2023-10-09T01:39:19;;;;22.40
70969;BMP280;58630;43.022;25.100;2023-10-09T01:41:53;;;;22.40
70969;BMP280;58630;43.022;25.100;2023-10-09T01:44:31;;;;22.30
70969;BMP280;58630;43.022;25.100;2023-10-09T01:47:02;;;;22.30
70969;BMP280;58630;43.022;25.100;2023-10-09T01:49:36;;;;22.30
70969;BMP280;58630;43.022;25.100;2023-10-09T01:52:07;;;;22.30
70969;BMP280;58630;43.022;25.100;2023-10-09T01:54:37;;;;22.30
70969;BMP280;58630;43.022;25.100;2023-10-09T01:57:06;;;;22.20
70969;BMP280;58630;43.022;25.100;2023-10-09T01:59:38;;;;22.20
70969;BMP280;58630;43.022;25.100;2023-10-09T02:02:04;;;;22.20
70969;BMP280;58630;43.022;25.100;2023-10-09T02:04:39;;;;22.20
70969;BMP280;58630;43.022;25.100;2023-10-09T02:07:07;;;;22.20
70969;BMP280;58630;43.022;25.100;2023-10-09T02:09:34;;;;22.10
70969;BMP280;58630;43.022;25.100;2023-10-09T02:12:00;;;;22.10
70969;BMP280;58630;43.022;25.100;2023-10-09T02:14:26;;;;22.10
70969;BMP280;58630;43.022;25.100;2023-10-09T02:16:52;;;;22.10
70969;BMP280;58630;43.022;25.100;2023-10-09T02:19:50;;;;22.10
70969;BMP280;58630;43.022;25.100;2023-10-09T02:22:17;;;;22.00
70969;BMP280;58630;43.022;25.100;2023-10-09T02:24:43;;;;22.00
70969;BMP280;58630;43.022;25.100;2023-10-09T02:27:25;;;;22.00
70969;BMP280;58630;43.022;25.100;2023-10-09T02:30:11;;;;22.00
70969;BMP280;58630;43.022;25.100;2023-10-09T02:32:45;;;;21.90
70969;BMP280;58630;43.022;25.100;2023-10-09T02:35:19;;;;21.90
70969;BMP280;58630;43.022;25.100;2023-10-09T02:37:46;;;;21.90
70969;BMP280;58630;43.022;25.100;2023-10-09T02:40:13;;;;21.90
70969;BMP280;58630;43.022;25.100;2023-10-09T02:42:47;;;;21.90
70969;BMP280;58630;43.022;25.100;2023-10-09T02:45:15;;;;21.90
70969;BMP280;58630;43.022;25.100;2023-10-09T02:47:41;;;;21.90
70969;BMP280;58630;43.022;25.100;2023-10-09T02:50:08;;;;21.80
70969;BMP280;58630;43.022;25.100;2023-10-09T02:52:45;;;;21.80
70969;BMP280;58630;43.022;25.100;2023-10-09T02:55:12;;;;21.80
70969;BMP280;58630;43.022;25.100;2023-10-09T02:57:50;;;;21.80
70969;BMP280;58630;43.022;25.100;2023-10-09T03:00:30;;;;21.80
70969;BMP280;58630;43.022;25.100;2023-10-09T03:02:57;;;;21.80
70969;BMP280;58630;43.022;25.100;2023-10-09T03:05:23;;;;21.70
70969;BMP280;58630;43.022;25.100;2023-10-09T03:07:53;;;;21.70
70969;BMP280;58630;43.022;25.100;2023-10-09T03:10:18;;;;21.70
70969;BMP280;58630;43.022;25.100;2023-10-09T03:12:44;;;;21.70
70969;BMP280;58630;43.022;25.100;2023-10-09T03:15:10;;;;21.70
70969;BMP280;58630;43.022;25.100;2023-10-09T03:17:36;;;;21.70
70969;BMP280;58630;43.022;25.100;2023-10-09T03:20:05;;;;21.70
70969;BMP280;58630;43.022;25.100;2023-10-09T03:22:38;;;;21.60
70969;BMP280;58630;43.022;25.100;2023-10-09T03:25:05;;;;21.60
70969;BMP280;58630;43.022;25.100;2023-10-09T03:27:40;;;;21.60
70969;BMP280;58630;43.022;25.100;2023-10-09T03:30:14;;;;21.60
70969;BMP280;58630;43.022;25.100;2023-10-09T03:32:43;;;;21.60
70969;BMP280;58630;43.022;25.100;2023-10-09T03:35:09;;;;21.60
70969;BMP280;58630;43.022;25.100;2023-10-09T03:37:39;;;;21.50
70969;BMP280;58630;43.022;25.100;2023-10-09T03:40:04;;;;21.60
70969;BMP280;58630;43.022;25.100;2023-10-09T03:42:32;;;;21.50
70969;BMP280;58630;43.022;25.100;2023-10-09T03:45:01;;;;21.50
70969;BMP280;58630;43.022;25.100;2023-10-09T03:47:31;;;;21.50
70969;BMP280;58630;43.022;25.100;2023-10-09T03:49:57;;;;21.50
70969;BMP280;58630;43.022;25.100;2023-10-09T03:52:23;;;;21.50
70969;BMP280;58630;43.022;25.100;2023-10-09T03:54:52;;;;21.50
70969;BMP280;58630;43.022;25.100;2023-10-09T03:57:18;;;;21.50
70969;BMP280;58630;43.022;25.100;2023-10-09T03:59:45;;;;21.40
70969;BMP280;58630;43.022;25.100;2023-10-09T04:02:12;;;;21.40
70969;BMP280;58630;43.022;25.100;2023-10-09T04:04:38;;;;21.40
70969;BMP280;58630;43.022;25.100;2023-10-09T04:07:03;;;;21.40
70969;BMP280;58630;43.022;25.100;2023-10-09T04:09:32;;;;21.40
70969;BMP280;58630;43.022;25.100;2023-10-09T04:12:04;;;;21.40
70969;BMP280;58630;43.022;25.100;2023-10-09T04:14:40;;;;21.40
70969;BMP280;58630;43.022;25.100;2023-10-09T04:17:14;;;;21.40
70969;BMP280;58630;43.022;25.100;2023-10-09T04:19:48;;;;21.30
70969;BMP280;58630;43.022;25.100;2023-10-09T04:22:34;;;;21.30
70969;BMP280;58630;43.022;25.100;2023-10-09T04:25:05;;;;21.30
70969;BMP280;58630;43.022;25.100;2023-10-09T04:27:33;;;;21.30
70969;BMP280;58630;43.022;25.100;2023-10-09T04:30:02;;;;21.30
70969;BMP280;58630;43.022;25.100;2023-10-09T04:32:28;;;;21.30
70969;BMP280;58630;43.022;25.100;2023-10-09T04:34:54;;;;21.30
70969;BMP280;58630;43.022;25.100;2023-10-09T04:37:42;;;;21.20
70969;BMP280;58630;43.022;25.100;2023-10-09T04:40:10;;;;21.20
70969;BMP280;58630;43.022;25.100;2023-10-09T04:42:52;;;;21.20
70969;BMP280;58630;43.022;25.100;2023-10-09T04:45:24;;;;21.20
70969;BMP280;58630;43.022;25.100;2023-10-09T04:48:08;;;;21.20
70969;BMP280;58630;43.022;25.100;2023-10-09T04:50:35;;;;21.20
70969;BMP280;58630;43.022;25.100;2023-10-09T04:53:03;;;;21.20
70969;BMP280;58630;43.022;25.100;2023-10-09T04:55:44;;;;21.20
70969;BMP280;58630;43.022;25.100;2023-10-09T04:58:20;;;;21.20
70969;BMP280;58630;43.022;25.100;2023-10-09T05:00:52;;;;21.20
70969;BMP280;58630;43.022;25.100;2023-10-09T05:03:40;;;;21.10
70969;BMP280;58630;43.022;25.100;2023-10-09T05:06:06;;;;21.10
70969;BMP280;58630;43.022;25.100;2023-10-09T05:09:03;;;;21.10
70969;BMP280;58630;43.022;25.100;2023-10-09T05:11:38;;;;21.10
70969;BMP280;58630;43.022;25.100;2023-10-09T05:14:24;;;;21.10
70969;BMP280;58630;43.022;25.100;2023-10-09T05:16:55;;;;21.10
70969;BMP280;58630;43.022;25.100;2023-10-09T05:19:23;;;;21.10
70969;BMP280;58630;43.022;25.100;2023-10-09T05:21:59;;;;21.10
70969;BMP280;58630;43.022;25.100;2023-10-09T05:24:32;;;;21.10
70969;BMP280;58630;43.022;25.100;2023-10-09T05:27:09;;;;21.10
70969;BMP280;58630;43.022;25.100;2023-10-09T05:29:42;;;;21.10
70969;BMP280;58630;43.022;25.100;2023-10-09T05:32:24;;;;21.10
70969;BMP280;58630;43.022;25.100;2023-10-09T05:34:55;;;;21.10
70969;BMP280;58630;43.022;25.100;2023-10-09T05:37:33;;;;21.10
70969;BMP280;58630;43.022;25.100;2023-10-09T05:40:05;;;;21.10
70969;BMP280;58630;43.022;25.100;2023-10-09T05:42:54;;;;21.00
70969;BMP280;58630;43.022;25.100;2023-10-09T05:45:28;;;;21.10
70969;BMP280;58630;43.022;25.100;2023-10-09T05:48:12;;;;21.00
70969;BMP280;58630;43.022;25.100;2023-10-09T05:50:44;;;;21.00
70969;BMP280;58630;43.022;25.100;2023-10-09T05:53:15;;;;21.00
70969;BMP280;58630;43.022;25.100;2023-10-09T05:56:04;;;;21.00
70969;BMP280;58630;43.022;25.100;2023-10-09T05:58:48;;;;21.00
70969;BMP280;58630;43.022;25.100;2023-10-09T06:01:32;;;;21.00
70969;BMP280;58630;43.022;25.100;2023-10-09T06:04:33;;;;21.00
70969;BMP280;58630;43.022;25.100;2023-10-09T06:07:17;;;;21.00
70969;BMP280;58630;43.022;25.100;2023-10-09T06:09:48;;;;21.00
70969;BMP280;58630;43.022;25.100;2023-10-09T06:12:21;;;;21.00
70969;BMP280;58630;43.022;25.100;2023-10-09T06:15:14;;;;21.00
70969;BMP280;58630;43.022;25.100;2023-10-09T06:18:18;;;;21.00
70969;BMP280;58630;43.022;25.100;2023-10-09T06:20:58;;;;21.00
70969;BMP280;58630;43.022;25.100;2023-10-09T06:23:33;;;;21.00
70969;BMP280;58630;43.022;25.100;2023-10-09T06:26:18;;;;21.00
70969;BMP280;58630;43.022;25.100;2023-10-09T06:28:50;;;;21.00
70969;BMP280;58630;43.022;25.100;2023-10-09T06:31:36;;;;21.00
70969;BMP280;58630;43.022;25.100;2023-10-09T06:34:20;;;;21.00
70969;BMP280;58630;43.022;25.100;2023-10-09T06:36:48;;;;21.00
70969;BMP280;58630;43.022;25.100;2023-10-09T06:39:18;;;;21.00
70969;BMP280;58630;43.022;25.100;2023-10-09T06:42:02;;;;21.00
70969;BMP280;58630;43.022;25.100;2023-10-09T06:44:35;;;;21.00
70969;BMP280;58630;43.022;25.100;2023-10-09T06:47:29;;;;21.00
70969;BMP280;58630;43.022;25.100;2023-10-09T06:50:02;;;;21.00
70969;BMP280;58630;43.022;25.100;2023-10-09T06:52:53;;;;21.00
70969;BMP280;58630;43.022;25.100;2023-10-09T06:55:37;;;;21.00
70969;BMP280;58630;43.022;25.100;2023-10-09T06:58:19;;;;21.00
70969;BMP280;58630;43.022;25.100;2023-10-09T07:00:49;;;;21.00
70969;BMP280;58630;43.022;25.100;2023-10-09T07:03:27;;;;21.00
70969;BMP280;58630;43.022;25.100;2023-10-09T07:06:11;;;;21.00
70969;BMP280;58630;43.022;25.100;2023-10-09T07:08:55;;;;21.00
70969;BMP280;58630;43.022;25.100;2023-10-09T07:16:34;;;;21.00
70969;BMP280;58630;43.022;25.100;2023-10-09T07:19:25;;;;21.00
70969;BMP280;58630;43.022;25.100;2023-10-09T07:22:00;;;;21.00
70969;BMP280;58630;43.022;25.100;2023-10-09T07:24:30;;;;21.00
70969;BMP280;58630;43.022;25.100;2023-10-09T07:27:09;;;;21.00
70969;BMP280;58630;43.022;25.100;2023-10-09T07:29:37;;;;21.00
70969;BMP280;58630;43.022;25.100;2023-10-09T07:32:16;;;;21.10
70969;BMP280;58630;43.022;25.100;2023-10-09T07:34:47;;;;21.00
70969;BMP280;58630;43.022;25.100;2023-10-09T07:37:26;;;;21.10
70969;BMP280;58630;43.022;25.100;2023-10-09T07:39:56;;;;21.00
70969;BMP280;58630;43.022;25.100;2023-10-09T07:42:31;;;;21.10
70969;BMP280;58630;43.022;25.100;2023-10-09T07:45:06;;;;21.10
70969;BMP280;58630;43.022;25.100;2023-10-09T07:47:58;;;;21.10
70969;BMP280;58630;43.022;25.100;2023-10-09T07:50:37;;;;21.10
70969;BMP280;58630;43.022;25.100;2023-10-09T07:53:15;;;;21.10
70969;BMP280;58630;43.022;25.100;2023-10-09T07:55:46;;;;21.10
70969;BMP280;58630;43.022;25.100;2023-10-09T07:58:22;;;;21.10
70969;BMP280;58630;43.022;25.100;2023-10-09T08:00:54;;;;21.10
70969;BMP280;58630;43.022;25.100;2023-10-09T08:03:36;;;;21.10
70969;BMP280;58630;43.022;25.100;2023-10-09T08:06:02;;;;21.10
70969;BMP280;58630;43.022;25.100;2023-10-09T08:08:46;;;;21.10
70969;BMP280;58630;43.022;25.100;2023-10-09T08:11:27;;;;21.10
70969;BMP280;58630;43.022;25.100;2023-10-09T08:14:11;;;;21.10
70969;BMP280;58630;43.022;25.100;2023-10-09T08:16:55;;;;21.10
70969;BMP280;58630;43.022;25.100;2023-10-09T08:19:39;;;;21.10
70969;BMP280;58630;43.022;25.100;2023-10-09T08:22:25;;;;21.10
70969;BMP280;58630;43.022;25.100;2023-10-09T08:24:50;;;;21.20
70969;BMP280;58630;43.022;25.100;2023-10-09T08:27:29;;;;21.10
70969;BMP280;58630;43.022;25.100;2023-10-09T08:29:58;;;;21.10
70969;BMP280;58630;43.022;25.100;2023-10-09T08:32:42;;;;21.10
70969;BMP280;58630;43.022;25.100;2023-10-09T08:35:08;;;;21.10
70969;BMP280;58630;43.022;25.100;2023-10-09T08:37:53;;;;21.20
70969;BMP280;58630;43.022;25.100;2023-10-09T08:40:19;;;;21.20
70969;BMP280;58630;43.022;25.100;2023-10-09T08:42:52;;;;21.20
70969;BMP280;58630;43.022;25.100;2023-10-09T08:45:21;;;;21.20
70969;BMP280;58630;43.022;25.100;2023-10-09T08:47:55;;;;21.20
70969;BMP280;58630;43.022;25.100;2023-10-09T08:50:21;;;;21.20
70969;BMP280;58630;43.022;25.100;2023-10-09T08:52:50;;;;21.20
70969;BMP280;58630;43.022;25.100;2023-10-09T08:55:16;;;;21.20
70969;BMP280;58630;43.022;25.100;2023-10-09T08:57:43;;;;21.20
70969;BMP280;58630;43.022;25.100;2023-10-09T09:00:17;;;;21.20
70969;BMP280;58630;43.022;25.100;2023-10-09T09:02:52;;;;21.20
70969;BMP280;58630;43.022;25.100;2023-10-09T09:05:21;;;;21.30
70969;BMP280;58630;43.022;25.100;2023-10-09T09:07:47;;;;21.30
70969;BMP280;58630;43.022;25.100;2023-10-09T09:10:13;;;;21.30
70969;BMP280;58630;43.022;25.100;2023-10-09T09:12:49;;;;21.30
70969;BMP280;58630;43.022;25.100;2023-10-09T09:15:19;;;;21.30
70969;BMP280;58630;43.022;25.100;2023-10-09T09:17:45;;;;21.30
70969;BMP280;58630;43.022;25.100;2023-10-09T09:20:26;;;;21.30
70969;BMP280;58630;43.022;25.100;2023-10-09T09:23:10;;;;21.30
70969;BMP280;58630;43.022;25.100;2023-10-09T09:25:44;;;;21.30
70969;BMP280;58630;43.022;25.100;2023-10-09T09:28:11;;;;21.30
70969;BMP280;58630;43.022;25.100;2023-10-09T09:30:38;;;;21.30
70969;BMP280;58630;43.022;25.100;2023-10-09T09:33:16;;;;21.30
70969;BMP280;58630;43.022;25.100;2023-10-09T09:35:55;;;;21.30
70969;BMP280;58630;43.022;25.100;2023-10-09T09:38:23;;;;21.40
70969;BMP280;58630;43.022;25.100;2023-10-09T09:40:51;;;;21.40
70969;BMP280;58630;43.022;25.100;2023-10-09T09:43:19;;;;21.40
70969;BMP280;58630;43.022;25.100;2023-10-09T09:45:50;;;;21.40
70969;BMP280;58630;43.022;25.100;2023-10-09T09:48:18;;;;21.40
70969;BMP280;58630;43.022;25.100;2023-10-09T09:50:44;;;;21.40
70969;BMP280;58630;43.022;25.100;2023-10-09T09:53:14;;;;21.40
70969;BMP280;58630;43.022;25.100;2023-10-09T09:55:49;;;;21.40
70969;BMP280;58630;43.022;25.100;2023-10-09T09:58:25;;;;21.40
70969;BMP280;58630;43.022;25.100;2023-10-09T10:01:04;;;;21.40
70969;BMP280;58630;43.022;25.100;2023-10-09T10:03:54;;;;21.40
70969;BMP280;58630;43.022;25.100;2023-10-09T10:06:23;;;;21.40
70969;BMP280;58630;43.022;25.100;2023-10-09T10:08:52;;;;21.40
70969;BMP280;58630;43.022;25.100;2023-10-09T10:14:06;;;;21.40
70969;BMP280;58630;43.022;25.100;2023-10-09T10:19:22;;;;21.40
70969;BMP280;58630;43.022;25.100;2023-10-09T10:21:48;;;;21.40
70969;BMP280;58630;43.022;25.100;2023-10-09T10:29:35;;;;21.40
70969;BMP280;58630;43.022;25.100;2023-10-09T10:32:04;;;;21.40
70969;BMP280;58630;43.022;25.100;2023-10-09T10:34:54;;;;21.40
70969;BMP280;58630;43.022;25.100;2023-10-09T10:37:35;;;;21.50
70969;BMP280;58630;43.022;25.100;2023-10-09T10:40:25;;;;21.50
70969;BMP280;58630;43.022;25.100;2023-10-09T10:43:04;;;;21.50
70969;BMP280;58630;43.022;25.100;2023-10-09T10:45:39;;;;21.50
70969;BMP280;58630;43.022;25.100;2023-10-09T10:48:11;;;;21.50
70969;BMP280;58630;43.022;25.100;2023-10-09T10:50:57;;;;21.50
70969;BMP280;58630;43.022;25.100;2023-10-09T10:53:23;;;;21.50
70969;BMP280;58630;43.022;25.100;2023-10-09T10:56:00;;;;21.50
70969;BMP280;58630;43.022;25.100;2023-10-09T10:58:42;;;;21.50
70969;BMP280;58630;43.022;25.100;2023-10-09T11:03:01;;;;21.50
70969;BMP280;58630;43.022;25.100;2023-10-09T11:05:40;;;;21.50
70969;BMP280;58630;43.022;25.100;2023-10-09T11:08:09;;;;21.50
70969;BMP280;58630;43.022;25.100;2023-10-09T11:10:35;;;;21.60
70969;BMP280;58630;43.022;25.100;2023-10-09T11:13:01;;;;21.60
70969;BMP280;58630;43.022;25.100;2023-10-09T11:15:37;;;;21.60
70969;BMP280;58630;43.022;25.100;2023-10-09T11:18:13;;;;21.70
70969;BMP280;58630;43.022;25.100;2023-10-09T11:20:49;;;;21.80
70969;BMP280;58630;43.022;25.100;2023-10-09T11:23:30;;;;21.90
70969;BMP280;58630;43.022;25.100;2023-10-09T11:26:04;;;;21.90
70969;BMP280;58630;43.022;25.100;2023-10-09T11:31:40;;;;22.10
70969;BMP280;58630;43.022;25.100;2023-10-09T11:34:17;;;;22.20
70969;BMP280;58630;43.022;25.100;2023-10-09T11:36:48;;;;22.30
70969;BMP280;58630;43.022;25.100;2023-10-09T11:39:25;;;;22.40
70969;BMP280;58630;43.022;25.100;2023-10-09T11:42:09;;;;22.40
70969;BMP280;58630;43.022;25.100;2023-10-09T11:44:43;;;;22.50
70969;BMP280;58630;43.022;25.100;2023-10-09T11:47:10;;;;22.50
70969;BMP280;58630;43.022;25.100;2023-10-09T11:52:13;;;;22.70
70969;BMP280;58630;43.022;25.100;2023-10-09T11:54:39;;;;22.70
70969;BMP280;58630;43.022;25.100;2023-10-09T11:57:05;;;;22.80
70969;BMP280;58630;43.022;25.100;2023-10-09T11:59:31;;;;22.80
70969;BMP280;58630;43.022;25.100;2023-10-09T12:02:09;;;;22.90
70969;BMP280;58630;43.022;25.100;2023-10-09T12:04:38;;;;22.90
70969;BMP280;58630;43.022;25.100;2023-10-09T12:07:07;;;;23.00
70969;BMP280;58630;43.022;25.100;2023-10-09T12:09:34;;;;23.10
70969;BMP280;58630;43.022;25.100;2023-10-09T12:12:03;;;;23.20
70969;BMP280;58630;43.022;25.100;2023-10-09T12:14:29;;;;23.30
70969;BMP280;58630;43.022;25.100;2023-10-09T12:17:06;;;;23.30
70969;BMP280;58630;43.022;25.100;2023-10-09T12:19:35;;;;23.50
70969;BMP280;58630;43.022;25.100;2023-10-09T12:22:01;;;;23.50
70969;BMP280;58630;43.022;25.100;2023-10-09T12:24:29;;;;23.60
70969;BMP280;58630;43.022;25.100;2023-10-09T12:26:55;;;;23.70
70969;BMP280;58630;43.022;25.100;2023-10-09T12:29:21;;;;23.70
70969;BMP280;58630;43.022;25.100;2023-10-09T12:31:47;;;;23.80
70969;BMP280;58630;43.022;25.100;2023-10-09T12:34:13;;;;23.80
70969;BMP280;58630;43.022;25.100;2023-10-09T12:36:47;;;;23.90
70969;BMP280;58630;43.022;25.100;2023-10-09T12:39:14;;;;24.00
70969;BMP280;58630;43.022;25.100;2023-10-09T12:41:44;;;;24.10
70969;BMP280;58630;43.022;25.100;2023-10-09T12:44:09;;;;24.20
70969;BMP280;58630;43.022;25.100;2023-10-09T12:46:44;;;;24.20
70969;BMP280;58630;43.022;25.100;2023-10-09T12:49:20;;;;24.30
70969;BMP280;58630;43.022;25.100;2023-10-09T12:51:53;;;;24.50
70969;BMP280;58630;43.022;25.100;2023-10-09T12:54:18;;;;24.60
70969;BMP280;58630;43.022;25.100;2023-10-09T12:56:52;;;;24.70
70969;BMP280;58630;43.022;25.100;2023-10-09T12:59:18;;;;24.80
70969;BMP280;58630;43.022;25.100;2023-10-09T13:01:45;;;;24.80
70969;BMP280;58630;43.022;25.100;2023-10-09T13:04:11;;;;24.90
70969;BMP280;58630;43.022;25.100;2023-10-09T13:06:40;;;;24.90
70969;BMP280;58630;43.022;25.100;2023-10-09T13:09:10;;;;25.00
70969;BMP280;58630;43.022;25.100;2023-10-09T13:11:35;;;;25.00
70969;BMP280;58630;43.022;25.100;2023-10-09T13:14:02;;;;25.10
70969;BMP280;58630;43.022;25.100;2023-10-09T13:16:37;;;;25.10
70969;BMP280;58630;43.022;25.100;2023-10-09T13:19:02;;;;25.10
70969;BMP280;58630;43.022;25.100;2023-10-09T13:21:35;;;;25.10
70969;BMP280;58630;43.022;25.100;2023-10-09T13:24:02;;;;25.10
70969;BMP280;58630;43.022;25.100;2023-10-09T13:26:28;;;;25.20
70969;BMP280;58630;43.022;25.100;2023-10-09T13:28:58;;;;25.20
70969;BMP280;58630;43.022;25.100;2023-10-09T13:31:25;;;;25.20
70969;BMP280;58630;43.022;25.100;2023-10-09T13:33:57;;;;25.20
70969;BMP280;58630;43.022;25.100;2023-10-09T13:36:25;;;;25.30
70969;BMP280;58630;43.022;25.100;2023-10-09T13:38:57;;;;25.30
70969;BMP280;58630;43.022;25.100;2023-10-09T13:41:23;;;;25.30
70969;BMP280;58630;43.022;25.100;2023-10-09T13:43:53;;;;25.30
70969;BMP280;58630;43.022;25.100;2023-10-09T13:46:19;;;;25.40
70969;BMP280;58630;43.022;25.100;2023-10-09T13:48:45;;;;25.40
70969;BMP280;58630;43.022;25.100;2023-10-09T13:51:12;;;;25.50
70969;BMP280;58630;43.022;25.100;2023-10-09T13:53:43;;;;25.50
70969;BMP280;58630;43.022;25.100;2023-10-09T13:56:12;;;;25.50
70969;BMP280;58630;43.022;25.100;2023-10-09T13:58:40;;;;25.50
70969;BMP280;58630;43.022;25.100;2023-10-09T14:01:08;;;;25.50
70969;BMP280;58630;43.022;25.100;2023-10-09T14:03:34;;;;25.40
70969;BMP280;58630;43.022;25.100;2023-10-09T14:05:59;;;;25.50
70969;BMP280;58630;43.022;25.100;2023-10-09T14:08:35;;;;25.50
70969;BMP280;58630;43.022;25.100;2023-10-09T14:11:08;;;;25.50
70969;BMP280;58630;43.022;25.100;2023-10-09T14:13:41;;;;25.50
70969;BMP280;58630;43.022;25.100;2023-10-09T14:16:06;;;;25.60
70969;BMP280;58630;43.022;25.100;2023-10-09T14:18:33;;;;25.60
70969;BMP280;58630;43.022;25.100;2023-10-09T14:21:02;;;;25.60
70969;BMP280;58630;43.022;25.100;2023-10-09T14:23:30;;;;25.60
70969;BMP280;58630;43.022;25.100;2023-10-09T14:25:59;;;;25.70
70969;BMP280;58630;43.022;25.100;2023-10-09T14:28:27;;;;25.70
70969;BMP280;58630;43.022;25.100;2023-10-09T14:33:09;;;;25.70
70969;BMP280;58630;43.022;25.100;2023-10-09T14:35:41;;;;25.80
70969;BMP280;58630;43.022;25.100;2023-10-09T14:38:10;;;;26.00
70969;BMP280;58630;43.022;25.100;2023-10-09T14:40:41;;;;26.00
70969;BMP280;58630;43.022;25.100;2023-10-09T14:43:10;;;;26.00
70969;BMP280;58630;43.022;25.100;2023-10-09T14:45:47;;;;26.10
70969;BMP280;58630;43.022;25.100;2023-10-09T14:48:19;;;;26.10
70969;BMP280;58630;43.022;25.100;2023-10-09T14:50:48;;;;26.10
70969;BMP280;58630;43.022;25.100;2023-10-09T14:53:14;;;;26.20
70969;BMP280;58630;43.022;25.100;2023-10-09T14:55:41;;;;26.20
70969;BMP280;58630;43.022;25.100;2023-10-09T14:58:10;;;;26.20
70969;BMP280;58630;43.022;25.100;2023-10-09T15:00:36;;;;26.20
70969;BMP280;58630;43.022;25.100;2023-10-09T15:03:03;;;;26.20
70969;BMP280;58630;43.022;25.100;2023-10-09T15:05:29;;;;26.20
70969;BMP280;58630;43.022;25.100;2023-10-09T15:07:57;;;;26.20
70969;BMP280;58630;43.022;25.100;2023-10-09T15:10:22;;;;26.20
70969;BMP280;58630;43.022;25.100;2023-10-09T15:12:49;;;;26.20
70969;BMP280;58630;43.022;25.100;2023-10-09T15:15:15;;;;26.30
70969;BMP280;58630;43.022;25.100;2023-10-09T15:17:41;;;;26.30
70969;BMP280;58630;43.022;25.100;2023-10-09T15:20:13;;;;26.30
70969;BMP280;58630;43.022;25.100;2023-10-09T15:22:40;;;;26.30
70969;BMP280;58630;43.022;25.100;2023-10-09T15:25:05;;;;26.30
70969;BMP280;58630;43.022;25.100;2023-10-09T15:27:32;;;;26.20
70969;BMP280;58630;43.022;25.100;2023-10-09T15:29:57;;;;26.30
70969;BMP280;58630;43.022;25.100;2023-10-09T15:32:23;;;;26.30
70969;BMP280;58630;43.022;25.100;2023-10-09T15:34:54;;;;26.30
70969;BMP280;58630;43.022;25.100;2023-10-09T15:37:20;;;;26.30
70969;BMP280;58630;43.022;25.100;2023-10-09T15:39:46;;;;26.30
70969;BMP280;58630;43.022;25.100;2023-10-09T15:42:12;;;;26.20
70969;BMP280;58630;43.022;25.100;2023-10-09T15:44:38;;;;26.20
70969;BMP280;58630;43.022;25.100;2023-10-09T15:47:05;;;;26.20
70969;BMP280;58630;43.022;25.100;2023-10-09T15:49:34;;;;26.10
70969;BMP280;58630;43.022;25.100;2023-10-09T15:52:02;;;;26.10
70969;BMP280;58630;43.022;25.100;2023-10-09T15:54:28;;;;26.10
70969;BMP280;58630;43.022;25.100;2023-10-09T15:56:54;;;;26.10
70969;BMP280;58630;43.022;25.100;2023-10-09T15:59:21;;;;26.10
70969;BMP280;58630;43.022;25.100;2023-10-09T16:01:46;;;;26.10
70969;BMP280;58630;43.022;25.100;2023-10-09T16:04:12;;;;26.10
70969;BMP280;58630;43.022;25.100;2023-10-09T16:06:37;;;;26.10
70969;BMP280;58630;43.022;25.100;2023-10-09T16:09:06;;;;26.10
70969;BMP280;58630;43.022;25.100;2023-10-09T16:11:37;;;;26.00
70969;BMP280;58630;43.022;25.100;2023-10-09T16:14:05;;;;26.00
70969;BMP280;58630;43.022;25.100;2023-10-09T16:16:35;;;;26.00
70969;BMP280;58630;43.022;25.100;2023-10-09T16:19:07;;;;26.00
70969;BMP280;58630;43.022;25.100;2023-10-09T16:21:35;;;;26.00
70969;BMP280;58630;43.022;25.100;2023-10-09T16:24:01;;;;26.00
70969;BMP280;58630;43.022;25.100;2023-10-09T16:26:28;;;;26.00
70969;BMP280;58630;43.022;25.100;2023-10-09T16:28:54;;;;26.00
70969;BMP280;58630;43.022;25.100;2023-10-09T16:31:19;;;;26.00
70969;BMP280;58630;43.022;25.100;2023-10-09T16:33:45;;;;26.00
70969;BMP280;58630;43.022;25.100;2023-10-09T16:36:13;;;;26.00
70969;BMP280;58630;43.022;25.100;2023-10-09T16:38:38;;;;26.00
70969;BMP280;58630;43.022;25.100;2023-10-09T16:41:05;;;;26.00
70969;BMP280;58630;43.022;25.100;2023-10-09T16:43:36;;;;26.00